createdAt,value
2023-11-28T00:01:47.320Z,-0.29
2023-11-28T00:04:20.365Z,-0.29
2023-11-28T00:06:55.342Z,-0.29
2023-11-28T00:09:28.211Z,-0.26
2023-11-28T00:12:01.083Z,-0.23
2023-11-28T00:14:33.984Z,-0.19
2023-11-28T00:17:07.212Z,-0.15
2023-11-28T00:19:40.191Z,-0.10
2023-11-28T00:22:14.472Z,-0.05
2023-11-28T00:24:47.378Z,0.02
2023-11-28T00:27:20.237Z,0.06
2023-11-28T00:29:53.676Z,0.09
2023-11-28T00:32:26.679Z,0.12
2023-11-28T00:35:02.805Z,0.14
2023-11-28T00:37:40.982Z,0.15
2023-11-28T00:40:15.055Z,0.15
2023-11-28T00:42:48.819Z,0.28
2023-11-28T00:45:25.780Z,0.20
2023-11-28T00:47:59.802Z,0.13
2023-11-28T00:50:32.881Z,0.10
2023-11-28T00:53:07.300Z,0.06
2023-11-28T00:55:40.469Z,0.02
2023-11-28T00:58:13.457Z,-0.06
2023-11-28T01:00:46.350Z,-0.12
2023-11-28T01:03:19.256Z,-0.19
2023-11-28T01:05:52.447Z,-0.24
2023-11-28T01:08:26.932Z,-0.33
2023-11-28T01:10:59.952Z,-0.40
2023-11-28T01:13:33.007Z,-0.44
2023-11-28T01:16:06.685Z,-0.48
2023-11-28T01:18:39.621Z,-0.52
2023-11-28T01:21:13.725Z,-0.55
2023-11-28T01:23:47.970Z,-0.59
2023-11-28T01:26:20.938Z,-0.60
2023-11-28T01:28:53.900Z,-0.66
2023-11-28T01:31:29.478Z,-0.70
2023-11-28T01:34:02.628Z,-0.76
2023-11-28T01:36:35.561Z,-0.81
2023-11-28T01:39:10.067Z,-0.87
2023-11-28T01:41:47.799Z,-0.90
2023-11-28T01:44:20.831Z,-0.96
2023-11-28T01:46:55.026Z,-1.01
2023-11-28T01:49:33.947Z,-1.06
2023-11-28T01:52:09.120Z,-1.11
2023-11-28T01:54:45.135Z,-1.16
2023-11-28T01:57:18.164Z,-1.19
2023-11-28T01:59:51.198Z,-1.20
2023-11-28T02:02:24.691Z,-1.23
2023-11-28T02:04:57.646Z,-1.25
2023-11-28T02:07:30.832Z,-1.26
2023-11-28T02:10:05.564Z,-1.29
2023-11-28T02:12:38.503Z,-1.32
2023-11-28T02:15:12.134Z,-1.34
2023-11-28T02:17:45.216Z,-1.35
2023-11-28T02:20:20.956Z,-1.37
2023-11-28T02:22:53.893Z,-1.38
2023-11-28T02:25:29.956Z,-1.40
2023-11-28T02:28:04.917Z,-1.42
2023-11-28T02:30:37.795Z,-1.43
2023-11-28T02:33:10.795Z,-1.46
2023-11-28T02:35:43.865Z,-1.48
2023-11-28T02:38:17.285Z,-1.50
2023-11-28T02:40:50.157Z,-1.51
2023-11-28T02:43:24.559Z,-1.54
2023-11-28T02:45:57.698Z,-1.58
2023-11-28T02:48:31.611Z,-1.60
2023-11-28T02:51:06.075Z,-1.62
2023-11-28T02:53:39.977Z,-1.62
2023-11-28T02:56:13.217Z,-1.52
2023-11-28T02:58:47.582Z,-1.67
2023-11-28T03:01:20.715Z,-1.71
2023-11-28T03:03:53.601Z,-1.73
2023-11-28T03:06:26.660Z,-1.78
2023-11-28T03:08:59.506Z,-1.79
2023-11-28T03:11:32.431Z,-1.79
2023-11-28T03:14:06.801Z,-1.81
2023-11-28T03:16:40.180Z,-1.83
2023-11-28T03:19:13.169Z,-1.84
2023-11-28T03:21:46.086Z,-1.84
2023-11-28T03:24:19.069Z,-1.86
2023-11-28T03:26:51.937Z,-1.87
2023-11-28T03:29:26.221Z,-1.92
2023-11-28T03:31:59.259Z,-1.94
2023-11-28T03:34:32.446Z,-1.97
2023-11-28T03:37:05.363Z,-2.02
2023-11-28T03:39:38.205Z,-2.04
2023-11-28T03:42:11.572Z,-2.07
2023-11-28T03:44:45.791Z,-2.10
2023-11-28T03:47:19.108Z,-2.12
2023-11-28T03:49:52.010Z,-2.14
2023-11-28T03:52:24.925Z,-2.17
2023-11-28T03:54:58.182Z,-2.21
2023-11-28T03:57:31.259Z,-2.21
2023-11-28T04:00:07.168Z,-2.22
2023-11-28T04:02:40.289Z,-2.22
2023-11-28T04:05:14.770Z,-2.22
2023-11-28T04:07:47.871Z,-2.21
2023-11-28T04:10:20.730Z,-2.19
2023-11-28T04:12:54.786Z,-2.20
2023-11-28T04:15:29.165Z,-2.23
2023-11-28T04:18:02.846Z,-2.24
2023-11-28T04:20:37.139Z,-2.23
2023-11-28T04:23:10.357Z,-2.22
2023-11-28T04:25:43.320Z,-2.21
2023-11-28T04:28:16.268Z,-2.23
2023-11-28T04:30:57.426Z,-2.20
2023-11-28T04:33:32.839Z,-2.20
2023-11-28T04:36:07.328Z,-2.22
2023-11-28T04:38:40.369Z,-2.22
2023-11-28T04:41:14.236Z,-2.23
2023-11-28T04:43:48.707Z,-2.24
2023-11-28T04:46:23.590Z,-2.27
2023-11-28T04:48:56.667Z,-2.28
2023-11-28T04:51:29.528Z,-2.28
2023-11-28T04:54:02.467Z,-2.29
2023-11-28T04:56:35.765Z,-2.32
2023-11-28T04:59:09.093Z,-2.33
2023-11-28T05:01:48.211Z,-2.34
2023-11-28T05:04:21.375Z,-2.36
2023-11-28T05:06:54.625Z,-2.37
2023-11-28T05:09:28.674Z,-2.39
2023-11-28T05:12:01.687Z,-2.41
2023-11-28T05:14:35.973Z,-2.41
2023-11-28T05:17:10.869Z,-2.44
2023-11-28T05:19:44.116Z,-2.44
2023-11-28T05:22:20.772Z,-2.44
2023-11-28T05:24:54.204Z,-2.44
2023-11-28T05:27:27.115Z,-2.45
2023-11-28T05:30:00.080Z,-2.47
2023-11-28T05:32:35.108Z,-2.47
2023-11-28T05:35:08.927Z,-2.49
2023-11-28T05:37:41.932Z,-2.49
2023-11-28T05:40:16.651Z,-2.50
2023-11-28T05:42:49.680Z,-2.49
2023-11-28T05:45:22.591Z,-2.49
2023-11-28T05:47:57.003Z,-2.48
2023-11-28T05:50:30.157Z,-2.46
2023-11-28T05:53:03.203Z,-2.46
2023-11-28T05:55:36.192Z,-2.45
2023-11-28T05:58:10.164Z,-2.46
2023-11-28T06:00:42.926Z,-2.35
2023-11-28T06:03:17.532Z,-2.47
2023-11-28T06:05:50.485Z,-2.48
2023-11-28T06:08:23.481Z,-2.46
2023-11-28T06:10:56.939Z,-2.47
2023-11-28T06:13:29.807Z,-2.46
2023-11-28T06:16:06.148Z,-2.46
2023-11-28T06:18:42.549Z,-2.47
2023-11-28T06:21:16.175Z,-2.46
2023-11-28T06:23:50.845Z,-2.46
2023-11-28T06:26:26.726Z,-2.44
2023-11-28T06:28:59.770Z,-2.42
2023-11-28T06:31:32.755Z,-2.40
2023-11-28T06:34:07.105Z,-2.38
2023-11-28T06:36:40.035Z,-2.35
2023-11-28T06:39:12.873Z,-2.33
2023-11-28T06:41:46.405Z,-2.30
2023-11-28T06:44:20.186Z,-2.28
2023-11-28T06:46:53.138Z,-2.23
2023-11-28T06:49:27.450Z,-2.21
2023-11-28T06:52:01.913Z,-2.17
2023-11-28T06:54:35.321Z,-2.15
2023-11-28T06:57:08.151Z,-2.11
2023-11-28T06:59:41.144Z,-2.09
2023-11-28T07:02:14.220Z,-2.06
2023-11-28T07:04:48.836Z,-2.04
2023-11-28T07:07:22.279Z,-2.02
2023-11-28T07:09:56.078Z,-1.99
2023-11-28T07:12:29.081Z,-1.95
2023-11-28T07:15:01.959Z,-1.89
2023-11-28T07:17:35.015Z,-1.84
2023-11-28T07:20:11.186Z,-1.78
2023-11-28T07:22:44.176Z,-1.74
2023-11-28T07:25:17.120Z,-1.69
2023-11-28T07:27:49.938Z,-1.63
2023-11-28T07:30:22.807Z,-1.59
2023-11-28T07:32:55.734Z,-1.54
2023-11-28T07:35:30.008Z,-1.49
2023-11-28T07:38:03.724Z,-1.44
2023-11-28T07:40:38.511Z,-1.38
2023-11-28T07:43:11.376Z,-1.34
2023-11-28T07:45:44.343Z,-1.30
2023-11-28T07:48:17.393Z,-1.23
2023-11-28T07:50:51.682Z,-1.17
2023-11-28T07:53:24.607Z,-1.11
2023-11-28T07:55:57.462Z,-1.08
2023-11-28T07:58:30.431Z,-1.05
2023-11-28T08:01:03.346Z,-1.01
2023-11-28T08:03:36.277Z,-0.94
2023-11-28T08:06:13.484Z,-0.89
2023-11-28T08:08:46.501Z,-0.86
2023-11-28T08:11:19.569Z,-0.82
2023-11-28T08:13:52.680Z,-0.78
2023-11-28T08:16:25.682Z,-0.74
2023-11-28T08:18:58.580Z,-0.70
2023-11-28T08:21:32.796Z,-0.66
2023-11-28T08:24:06.538Z,-0.60
2023-11-28T08:26:39.585Z,-0.56
2023-11-28T08:29:12.557Z,-0.56
2023-11-28T08:31:45.568Z,-0.52
2023-11-28T08:34:18.620Z,-0.49
2023-11-28T08:36:53.107Z,-0.46
2023-11-28T08:39:29.587Z,-0.42
2023-11-28T08:42:02.476Z,-0.40
2023-11-28T08:44:36.662Z,-0.38
2023-11-28T08:47:09.554Z,-0.33
2023-11-28T08:49:44.912Z,-0.31
2023-11-28T08:52:23.880Z,-0.27
2023-11-28T08:55:07.085Z,-0.20
2023-11-28T08:57:40.077Z,-0.16
2023-11-28T09:00:18.094Z,-0.11
2023-11-28T09:02:52.731Z,-0.07
2023-11-28T09:05:25.771Z,-0.05
2023-11-28T09:08:22.781Z,0.01
2023-11-28T09:10:55.740Z,0.07
2023-11-28T09:13:28.934Z,0.08
2023-11-28T09:16:04.182Z,0.10
2023-11-28T09:18:37.733Z,0.07
2023-11-28T09:21:13.371Z,0.06
2023-11-28T09:23:47.676Z,0.07
2023-11-28T09:26:20.621Z,0.07
2023-11-28T09:28:53.655Z,0.11
2023-11-28T09:31:32.525Z,0.13
2023-11-28T09:34:05.507Z,0.16
2023-11-28T09:36:38.652Z,0.20
2023-11-28T09:39:13.379Z,0.22
2023-11-28T09:41:49.132Z,0.22
2023-11-28T09:44:27.282Z,0.23
2023-11-28T09:47:08.638Z,0.27
2023-11-28T09:49:43.748Z,0.26
2023-11-28T09:52:17.907Z,0.27
2023-11-28T09:54:54.004Z,0.38
2023-11-28T09:57:33.417Z,0.31
2023-11-28T10:00:12.159Z,0.32
2023-11-28T10:02:46.015Z,0.38
2023-11-28T10:05:20.097Z,0.53
2023-11-28T10:07:55.278Z,0.49
2023-11-28T10:10:29.591Z,0.53
2023-11-28T10:13:02.497Z,0.60
2023-11-28T10:15:35.374Z,0.66
2023-11-28T10:18:08.899Z,0.68
2023-11-28T10:20:41.820Z,0.73
2023-11-28T10:23:16.983Z,0.72
2023-11-28T10:25:51.681Z,0.72
2023-11-28T10:28:24.726Z,0.73
2023-11-28T10:30:57.628Z,0.75
2023-11-28T10:33:30.599Z,0.76
2023-11-28T10:36:03.580Z,0.77
2023-11-28T10:38:38.166Z,0.81
2023-11-28T10:41:12.435Z,0.80
2023-11-28T10:43:46.980Z,0.83
2023-11-28T10:46:20.302Z,0.83
2023-11-28T10:48:53.342Z,0.85
2023-11-28T10:51:27.487Z,0.87
2023-11-28T10:54:05.497Z,0.88
2023-11-28T10:56:48.283Z,0.94
2023-11-28T10:59:27.483Z,0.96
2023-11-28T11:02:02.446Z,1.00
2023-11-28T11:04:36.254Z,1.04
2023-11-28T11:07:09.780Z,1.06
2023-11-28T11:09:42.652Z,1.11
2023-11-28T11:12:17.934Z,1.07
2023-11-28T11:14:58.711Z,1.08
2023-11-28T11:17:41.989Z,1.12
2023-11-28T11:20:18.410Z,1.11
2023-11-28T11:22:55.154Z,1.08
2023-11-28T11:25:40.525Z,1.13
2023-11-28T11:28:15.172Z,1.05
2023-11-28T11:30:48.259Z,1.03
2023-11-28T11:33:25.599Z,1.00
2023-11-28T11:36:10.912Z,0.97
2023-11-28T11:38:48.111Z,0.93
2023-11-28T11:41:22.148Z,0.89
2023-11-28T11:43:56.884Z,0.98
2023-11-28T11:46:29.844Z,0.99
2023-11-28T11:49:03.769Z,0.85
2023-11-28T11:51:36.487Z,0.95
2023-11-28T11:54:12.307Z,0.83
2023-11-28T11:56:45.183Z,0.79
2023-11-28T11:59:21.678Z,0.76
2023-11-28T12:01:55.037Z,0.74
2023-11-28T12:04:28.240Z,0.72
2023-11-28T12:07:06.748Z,0.76
2023-11-28T12:09:40.205Z,0.76
2023-11-28T12:12:14.455Z,0.75
2023-11-28T12:14:49.112Z,0.75
2023-11-28T12:17:22.560Z,0.75
2023-11-28T12:19:57.085Z,0.76
2023-11-28T12:22:31.422Z,0.78
2023-11-28T12:25:04.586Z,0.77
2023-11-28T12:27:37.471Z,0.78
2023-11-28T12:30:13.529Z,0.71
2023-11-28T12:32:46.994Z,0.66
2023-11-28T12:35:21.915Z,0.65
2023-11-28T12:37:56.045Z,0.62
2023-11-28T12:40:29.193Z,0.59
2023-11-28T12:43:03.875Z,0.54
2023-11-28T12:45:38.085Z,0.51
2023-11-28T12:48:12.596Z,0.52
2023-11-28T12:50:47.797Z,0.53
2023-11-28T12:53:21.196Z,0.54
2023-11-28T12:55:54.223Z,0.53
2023-11-28T12:58:27.531Z,0.50
2023-11-28T13:01:01.770Z,0.51
2023-11-28T13:03:37.052Z,0.51
2023-11-28T13:06:10.894Z,0.45
2023-11-28T13:08:43.789Z,0.42
2023-11-28T13:11:17.838Z,0.40
2023-11-28T13:13:50.983Z,0.48
2023-11-28T13:16:27.852Z,0.35
2023-11-28T13:19:01.623Z,0.33
2023-11-28T13:21:37.064Z,0.32
2023-11-28T13:24:16.251Z,0.28
2023-11-28T13:26:49.105Z,0.25
2023-11-28T13:29:24.020Z,0.23
2023-11-28T13:31:59.821Z,0.20
2023-11-28T13:34:32.700Z,0.20
2023-11-28T13:37:07.185Z,0.19
2023-11-28T13:39:42.317Z,0.17
2023-11-28T13:42:15.212Z,0.16
2023-11-28T13:44:48.059Z,0.16
2023-11-28T13:47:22.897Z,0.15
2023-11-28T13:49:57.323Z,0.15
2023-11-28T13:52:30.390Z,0.14
2023-11-28T13:55:03.349Z,0.13
2023-11-28T13:57:36.270Z,0.12
2023-11-28T14:00:09.870Z,0.12
2023-11-28T14:02:45.772Z,0.12
2023-11-28T14:05:20.138Z,0.10
2023-11-28T14:07:53.055Z,0.19
2023-11-28T14:10:26.002Z,0.10
2023-11-28T14:12:58.927Z,0.05
2023-11-28T14:15:32.283Z,0.03
2023-11-28T14:18:07.136Z,0.04
2023-11-28T14:20:40.039Z,0.02
2023-11-28T14:23:12.946Z,0.01
2023-11-28T14:25:46.422Z,-0.01
2023-11-28T14:28:19.334Z,0.01
2023-11-28T14:30:52.237Z,-0.02
2023-11-28T14:33:29.787Z,-0.05
2023-11-28T14:36:02.795Z,-0.05
2023-11-28T14:38:35.725Z,-0.05
2023-11-28T14:41:09.541Z,-0.06
2023-11-28T14:43:42.466Z,-0.07
2023-11-28T14:46:15.469Z,-0.12
2023-11-28T14:48:50.249Z,-0.14
2023-11-28T14:51:23.140Z,-0.15
2023-11-28T14:53:56.044Z,-0.16
2023-11-28T14:56:29.346Z,-0.18
2023-11-28T14:59:03.849Z,-0.20
2023-11-28T15:01:38.540Z,-0.24
2023-11-28T15:04:15.992Z,-0.26
2023-11-28T15:06:51.294Z,-0.24
2023-11-28T15:09:25.087Z,-0.27
2023-11-28T15:11:58.907Z,-0.31
2023-11-28T15:14:31.913Z,-0.32
2023-11-28T15:17:04.945Z,-0.32
2023-11-28T15:19:40.633Z,-0.35
2023-11-28T15:22:15.578Z,-0.38
2023-11-28T15:24:51.451Z,-0.39
2023-11-28T15:27:24.615Z,-0.42
2023-11-28T15:29:59.923Z,-0.42
2023-11-28T15:32:33.291Z,-0.45
2023-11-28T15:35:12.789Z,-0.51
2023-11-28T15:37:52.800Z,-0.53
2023-11-28T15:40:33.679Z,-0.58
2023-11-28T15:43:10.493Z,-0.63
2023-11-28T15:45:43.359Z,-0.63
2023-11-28T15:48:16.327Z,-0.65
2023-11-28T15:50:51.133Z,-0.69
2023-11-28T15:53:24.655Z,-0.70
2023-11-28T15:55:57.626Z,-0.74
2023-11-28T15:58:30.542Z,-0.75
2023-11-28T16:01:03.467Z,-0.78
2023-11-28T16:03:38.874Z,-0.82
2023-11-28T16:06:17.037Z,-0.84
2023-11-28T16:08:52.332Z,-0.86
2023-11-28T16:11:25.882Z,-0.89
2023-11-28T16:13:59.067Z,-0.88
2023-11-28T16:16:31.982Z,-0.89
2023-11-28T16:19:05.404Z,-0.91
2023-11-28T16:21:40.122Z,-0.81
2023-11-28T16:24:15.592Z,-0.91
2023-11-28T16:26:50.486Z,-0.92
2023-11-28T16:29:23.497Z,-0.93
2023-11-28T16:31:56.381Z,-0.89
2023-11-28T16:34:29.312Z,-0.91
2023-11-28T16:37:03.618Z,-0.92
2023-11-28T16:39:41.425Z,-0.92
2023-11-28T16:42:15.641Z,-0.95
2023-11-28T16:44:48.612Z,-0.92
2023-11-28T16:47:21.802Z,-0.93
2023-11-28T16:49:54.701Z,-0.94
2023-11-28T16:52:29.220Z,-0.97
2023-11-28T16:55:02.068Z,-1.00
2023-11-28T16:57:35.523Z,-1.04
2023-11-28T17:00:11.623Z,-1.06
2023-11-28T17:02:44.929Z,-1.07
2023-11-28T17:05:19.515Z,-1.07
2023-11-28T17:07:53.911Z,-1.08
2023-11-28T17:10:29.446Z,-1.11
2023-11-28T17:13:04.131Z,-1.11
2023-11-28T17:15:37.804Z,-1.10
2023-11-28T17:18:10.878Z,-1.12
2023-11-28T17:20:44.162Z,-1.14
2023-11-28T17:23:18.639Z,-1.20
2023-11-28T17:25:51.589Z,-1.22
2023-11-28T17:28:24.430Z,-1.23
2023-11-28T17:30:57.958Z,-1.24
2023-11-28T17:33:31.451Z,-1.22
2023-11-28T17:36:04.805Z,-1.23
2023-11-28T17:38:39.438Z,-1.26
2023-11-28T17:41:17.852Z,-1.24
2023-11-28T17:43:50.727Z,-1.22
2023-11-28T17:46:23.637Z,-1.19
2023-11-28T17:48:59.893Z,-1.17
2023-11-28T17:51:33.273Z,-1.17
2023-11-28T17:54:07.693Z,-1.17
2023-11-28T17:56:42.847Z,-1.16
2023-11-28T17:59:15.736Z,-1.15
2023-11-28T18:01:49.279Z,-1.15
2023-11-28T18:04:22.170Z,-1.16
2023-11-28T18:06:58.498Z,-1.15
2023-11-28T18:09:33.616Z,-1.15
2023-11-28T18:12:07.394Z,-1.15
2023-11-28T18:14:40.508Z,-1.14
2023-11-28T18:17:13.527Z,-1.16
2023-11-28T18:19:46.447Z,-1.18
2023-11-28T18:22:20.746Z,-1.19
2023-11-28T18:24:57.485Z,-1.21
2023-11-28T18:27:30.499Z,-1.21
2023-11-28T18:30:03.416Z,-1.20
2023-11-28T18:32:36.375Z,-1.21
2023-11-28T18:35:09.574Z,-1.24
2023-11-28T18:37:42.552Z,-1.28
2023-11-28T18:40:16.904Z,-1.32
2023-11-28T18:42:50.147Z,-1.32
2023-11-28T18:45:23.114Z,-1.37
2023-11-28T18:47:57.643Z,-1.38
2023-11-28T18:50:32.478Z,-1.38
2023-11-28T18:53:05.472Z,-1.38
2023-11-28T18:55:39.951Z,-1.38
2023-11-28T18:58:12.796Z,-1.38
2023-11-28T19:00:45.878Z,-1.40
2023-11-28T19:03:19.258Z,-1.44
2023-11-28T19:05:53.170Z,-1.48
2023-11-28T19:08:26.113Z,-1.53
2023-11-28T19:11:00.386Z,-1.54
2023-11-28T19:13:33.656Z,-1.54
2023-11-28T19:16:06.999Z,-1.56
2023-11-28T19:18:41.697Z,-1.56
2023-11-28T19:21:15.107Z,-1.59
2023-11-28T19:23:51.062Z,-1.60
2023-11-28T19:26:25.433Z,-1.63
2023-11-28T19:28:58.979Z,-1.66
2023-11-28T19:31:33.360Z,-1.66
2023-11-28T19:34:06.799Z,-1.66
2023-11-28T19:36:39.650Z,-1.69
2023-11-28T19:39:21.935Z,-1.68
2023-11-28T19:41:58.061Z,-1.71
2023-11-28T19:44:31.027Z,-1.75
2023-11-28T19:47:05.730Z,-1.78
2023-11-28T19:49:38.854Z,-1.80
2023-11-28T19:52:11.834Z,-1.81
2023-11-28T19:54:44.796Z,-1.84
2023-11-28T19:57:19.858Z,-1.85
2023-11-28T19:59:53.272Z,-1.86
2023-11-28T20:02:26.620Z,-1.90
2023-11-28T20:05:01.817Z,-1.93
2023-11-28T20:07:39.316Z,-1.97
2023-11-28T20:10:12.413Z,-1.98
2023-11-28T20:12:48.247Z,-2.02
2023-11-28T20:15:21.118Z,-2.06
2023-11-28T20:17:54.109Z,-2.10
2023-11-28T20:20:27.700Z,-2.15
2023-11-28T20:23:01.063Z,-2.21
2023-11-28T20:25:34.268Z,-2.26
2023-11-28T20:28:08.628Z,-2.30
2023-11-28T20:30:42.313Z,-2.32
2023-11-28T20:33:15.233Z,-2.31
2023-11-28T20:35:53.206Z,-2.33
2023-11-28T20:38:26.243Z,-2.32
2023-11-28T20:41:07.366Z,-2.33
2023-11-28T20:43:51.227Z,-2.37
2023-11-28T20:46:25.904Z,-2.35
2023-11-28T20:49:06.192Z,-2.33
2023-11-28T20:51:39.026Z,-2.32
2023-11-28T20:54:12.361Z,-2.33
2023-11-28T20:56:45.460Z,-2.35
2023-11-28T20:59:20.250Z,-2.37
2023-11-28T21:01:53.289Z,-2.37
2023-11-28T21:04:26.230Z,-2.35
2023-11-28T21:07:10.078Z,-2.37
2023-11-28T21:09:43.669Z,-2.35
2023-11-28T21:12:18.865Z,-2.35
2023-11-28T21:14:53.536Z,-2.38
2023-11-28T21:17:26.698Z,-2.37
2023-11-28T21:20:00.536Z,-2.35
2023-11-28T21:22:34.275Z,-2.32
2023-11-28T21:25:08.077Z,-2.31
2023-11-28T21:27:41.621Z,-2.31
2023-11-28T21:30:20.317Z,-2.31
2023-11-28T21:32:53.275Z,-2.30
2023-11-28T21:35:26.934Z,-2.27
2023-11-28T21:38:00.151Z,-2.25
2023-11-28T21:40:33.743Z,-2.24
2023-11-28T21:43:07.528Z,-2.22
2023-11-28T21:45:41.989Z,-2.18
2023-11-28T21:48:22.203Z,-2.16
2023-11-28T21:50:59.023Z,-2.14
2023-11-28T21:53:37.046Z,-2.12
2023-11-28T21:56:10.443Z,-2.09
2023-11-28T21:58:43.385Z,-2.08
2023-11-28T22:01:17.888Z,-2.06
2023-11-28T22:03:51.037Z,-2.04
2023-11-28T22:06:24.351Z,-1.98
2023-11-28T22:09:02.379Z,-1.98
2023-11-28T22:11:36.552Z,-1.96
2023-11-28T22:14:09.523Z,-1.94
2023-11-28T22:16:43.834Z,-1.93
2023-11-28T22:19:16.956Z,-1.93
2023-11-28T22:21:49.872Z,-1.94
2023-11-28T22:24:23.976Z,-1.97
2023-11-28T22:26:56.970Z,-2.01
2023-11-28T22:29:30.044Z,-2.03
2023-11-28T22:32:05.162Z,-2.03
2023-11-28T22:34:38.155Z,-2.04
2023-11-28T22:37:11.879Z,-2.04
2023-11-28T22:39:44.926Z,-2.06
2023-11-28T22:42:17.781Z,-2.07
2023-11-28T22:44:51.489Z,-2.05
2023-11-28T22:47:25.872Z,-2.03
2023-11-28T22:49:58.787Z,-2.02
2023-11-28T22:52:31.727Z,-1.99
2023-11-28T22:55:07.579Z,-1.97
2023-11-28T22:57:40.627Z,-1.94
2023-11-28T23:00:16.412Z,-1.93
2023-11-28T23:02:50.880Z,-1.90
2023-11-28T23:05:23.842Z,-1.90
2023-11-28T23:07:56.734Z,-1.87
2023-11-28T23:10:29.662Z,-1.84
2023-11-28T23:13:02.525Z,-1.83
2023-11-28T23:15:35.397Z,-1.86
2023-11-28T23:18:09.684Z,-1.85
2023-11-28T23:20:43.859Z,-1.85
2023-11-28T23:23:16.770Z,-1.84
2023-11-28T23:25:49.801Z,-1.84
2023-11-28T23:28:22.732Z,-1.83
2023-11-28T23:30:56.184Z,-1.80
2023-11-28T23:33:31.242Z,-1.80
2023-11-28T23:36:04.462Z,-1.83
2023-11-28T23:38:37.404Z,-1.83
2023-11-28T23:41:10.572Z,-1.85
2023-11-28T23:43:43.505Z,-1.83
2023-11-28T23:46:16.439Z,-1.80
2023-11-28T23:48:53.532Z,-1.79
2023-11-28T23:51:26.563Z,-1.76
2023-11-28T23:53:59.677Z,-1.75
2023-11-28T23:56:32.685Z,-1.76
2023-11-28T23:59:05.841Z,-1.75
